Dobrodošli na spletni strani vremenske postaje Senovo. Vse informacije so informativnega značaja, saj vremenska postaja ni del državne mreže meteoroloških postaj. AKTUALNIH OBVESTIL NI.


Posebna pozornost v zvezi z vremenskimi dogajanji ni potrebna.    Posebna pozornost v zvezi z vremenskimi dogajanji ni potrebna.

Pogled proti Armezu več informacij Pogled proti Armezu


Bohor več informacij Bohor


Radar strel več informacij blitzortung!


Radar padavin več informacij rain snow radar


Obiščite še:

Template documentation
and downloads

And another site



Weather Underground, zgodovina - Tekstovno

Dnevni povzetek za Februar 6, 2018 Enote:  Metrično    Angleško   Obe
« Predhodni Dan
Naslednji Dan »
Dnevni Tedenski Mesečni Letni Po meri
  Višja: Nižja: Povprečje:
Temperatura: -17.8 °C -18.2 °C -17.7 °C
Točka rosišča: -17.8 °C -19.3 °C -18.6 °C
Vlažnost: Humidity % 85 % 88 %
Hitrost vetra: 0 km/h 0 km/h 3.1 km/h
Sunki vetra: 0 km/h - -
Veter:- - SSE
Zračni tlak: 0 hPa 34303.6 hPa -
Padavine: 0 mm    
Historical Graphs
 
 
Tabelarni podarki za Februar 6, 2018
Čas Temperatura Točka rosišča Zračni tlak Veter Hitrost vetra Sunki vetra Vlažnost Intenziteta padavin (urna)
-17.8 °C -17.8 °C 0 hPa Calm     Humidity % 0 mm
00:00 -17.7 °C -18.5 °C 34567.7 hPa Calm     90 % 0 mm
00:05 -17.7 °C -18.5 °C 34567.7 hPa Calm   2.3 km/h 90 % 0 mm
00:10 -17.7 °C -18.5 °C 34567.7 hPa NE 0.8 km/h 5.1 km/h 90 % 0 mm
00:15 -17.7 °C -18.5 °C 34567.7 hPa NE 0.8 km/h 5.1 km/h 90 % 0 mm
00:20 -17.7 °C -18.5 °C 34567.7 hPa North 0.3 km/h   90 % 0 mm
00:25 -17.7 °C -18.4 °C 34567.7 hPa SE 0.3 km/h 3.4 km/h 90 % 0 mm
00:30 -17.7 °C -18.4 °C 34567.7 hPa ESE 0.5 km/h 5.6 km/h 90 % 0 mm
00:35 -17.7 °C -18.4 °C 34567.7 hPa ESE 0.3 km/h 5.6 km/h 90 % 0 mm
00:40 -17.7 °C -18.4 °C 34533.8 hPa North 0.3 km/h   90 % 0 mm
00:45 -17.7 °C -18.4 °C 34533.8 hPa Calm     90 % 0 mm
00:50 -17.7 °C -18.4 °C 34533.8 hPa Calm     90 % 0 mm
00:55 -17.7 °C -18.4 °C 34533.8 hPa SSW 0.8 km/h 5.6 km/h 90 % 0 mm
01:00 -17.7 °C -18.4 °C 34533.8 hPa SSW 1.3 km/h 5.6 km/h 90 % 0 mm
01:05 -17.7 °C -18.4 °C 34533.8 hPa SW 0.8 km/h 4.2 km/h 90 % 0 mm
01:10 -17.7 °C -18.4 °C 34533.8 hPa SSW 0.3 km/h 3.4 km/h 90 % 0 mm
01:15 -17.7 °C -18.4 °C 34533.8 hPa Calm     90 % 0 mm
01:20 -17.7 °C -18.4 °C 34533.8 hPa Calm     90 % 0 mm
01:25 -17.7 °C -18.4 °C 34496.6 hPa Calm     90 % 0 mm
01:30 -17.7 °C -18.4 °C 34496.6 hPa Calm     90 % 0 mm
01:35 -17.7 °C -18.4 °C 34496.6 hPa Calm     90 % 0 mm
01:40 -17.7 °C -18.4 °C 34496.6 hPa Calm     90 % 0 mm
01:45 -17.7 °C -18.4 °C 34496.6 hPa Calm     90 % 0 mm
01:50 -17.7 °C -18.4 °C 34496.6 hPa Calm     90 % 0 mm
01:55 -17.7 °C -18.4 °C 34496.6 hPa Calm     90 % 0 mm
02:00 -17.7 °C -18.4 °C 34496.6 hPa Calm     90 % 0 mm
02:05 -17.7 °C -18.4 °C 34496.6 hPa Calm     90 % 0 mm
02:10 -17.7 °C -18.4 °C 34476.3 hPa Calm     90 % 0 mm
02:15 -17.7 °C -18.4 °C 34476.3 hPa Calm     90 % 0 mm
02:20 -17.7 °C -18.4 °C 34476.3 hPa South 0.3 km/h 5.1 km/h 90 % 0 mm
02:25 -17.7 °C -18.4 °C 34476.3 hPa SSE 2.1 km/h 6.4 km/h 90 % 0 mm
02:30 -17.7 °C -18.4 °C 34476.3 hPa SSE 2.1 km/h 6.4 km/h 90 % 0 mm
02:35 -17.7 °C -18.4 °C 34476.3 hPa South 0.5 km/h 6.9 km/h 90 % 0 mm
02:40 -17.7 °C -18.4 °C 34496.6 hPa South 2.9 km/h 7.6 km/h 90 % 0 mm
02:45 -17.7 °C -18.5 °C 34496.6 hPa South 3.1 km/h 7.6 km/h 90 % 0 mm
02:50 -17.7 °C -18.5 °C 34496.6 hPa South 1.8 km/h 6.4 km/h 90 % 0 mm
02:55 -17.7 °C -18.5 °C 34533.8 hPa South 2.1 km/h 6.4 km/h 90 % 0 mm
03:00 -17.7 °C -18.5 °C 34533.8 hPa SSW 2.3 km/h 5.1 km/h 90 % 0 mm
03:05 -17.7 °C -18.5 °C 34533.8 hPa SSW 2.3 km/h 5.6 km/h 90 % 0 mm
03:10 -17.7 °C -18.5 °C 34496.6 hPa SSW 2.6 km/h 5.6 km/h 90 % 0 mm
03:15 -17.7 °C -18.5 °C 34496.6 hPa SW 2.1 km/h 5.6 km/h 90 % 0 mm
03:20 -17.7 °C -18.5 °C 34496.6 hPa SW 2.1 km/h 5.6 km/h 90 % 0 mm
03:25 -17.7 °C -18.5 °C 34496.6 hPa SW 2.6 km/h 5.6 km/h 90 % 0 mm
03:30 -17.7 °C -18.5 °C 34496.6 hPa SSW 1.3 km/h 5.1 km/h 90 % 0 mm
03:35 -17.7 °C -18.5 °C 34496.6 hPa SSW 0.8 km/h 4.2 km/h 90 % 0 mm
03:40 -17.7 °C -18.5 °C 34496.6 hPa SSW 0.5 km/h 4.2 km/h 90 % 0 mm
03:45 -17.7 °C -18.5 °C 34496.6 hPa Calm     90 % 0 mm
03:50 -17.7 °C -18.5 °C 34496.6 hPa SW 0.8 km/h 4.2 km/h 90 % 0 mm
03:55 -17.7 °C -18.5 °C 34496.6 hPa SW 1.8 km/h 6.4 km/h 90 % 0 mm
04:00 -17.7 °C -18.5 °C 34496.6 hPa SW 2.9 km/h 6.4 km/h 90 % 0 mm
04:05 -17.8 °C -18.6 °C 34496.6 hPa WSW 3.1 km/h 6.4 km/h 90 % 0 mm
04:10 -17.8 °C -18.6 °C 34476.3 hPa WSW 2.9 km/h 6.4 km/h 90 % 0 mm
04:15 -17.8 °C -18.6 °C 34476.3 hPa WSW 2.6 km/h 5.1 km/h 90 % 0 mm
04:20 -17.8 °C -18.6 °C 34476.3 hPa WSW 0.8 km/h 5.1 km/h 90 % 0 mm
04:25 -17.8 °C -18.6 °C 34496.6 hPa WSW 1 km/h 6.9 km/h 90 % 0 mm
04:30 -17.8 °C -18.6 °C 34496.6 hPa WSW 3.9 km/h 7.6 km/h 90 % 0 mm
04:35 -17.8 °C -18.6 °C 34496.6 hPa WSW 3.9 km/h 7.6 km/h 90 % 0 mm
04:40 -17.8 °C -18.6 °C 34496.6 hPa WSW 0.8 km/h 4.2 km/h 90 % 0 mm
04:45 -17.8 °C -18.6 °C 34496.6 hPa Calm     90 % 0 mm
04:50 -17.8 °C -18.6 °C 34496.6 hPa Calm     90 % 0 mm
04:55 -17.8 °C -18.6 °C 34476.3 hPa Calm     90 % 0 mm
05:00 -17.8 °C -18.6 °C 34476.3 hPa Calm     90 % 0 mm
05:05 -17.8 °C -18.6 °C 34476.3 hPa Calm     90 % 0 mm
05:06 -17.8 °C -18.6 °C 34476.3 hPa Calm     90 % 0 mm
05:11 -17.8 °C -18.6 °C 34476.3 hPa Calm     90 % 0 mm
05:17 -17.8 °C -18.6 °C 34476.3 hPa Calm     90 % 0 mm
05:23 -17.8 °C -18.6 °C 34476.3 hPa Calm     90 % 0 mm
05:28 -17.8 °C -18.6 °C 34476.3 hPa Calm     90 % 0 mm
05:33 -17.8 °C -18.6 °C 34476.3 hPa Calm     90 % 0 mm
05:38 -17.8 °C -18.6 °C 34476.3 hPa Calm     90 % 0 mm
05:43 -17.8 °C -18.6 °C 34476.3 hPa Calm     90 % 0 mm
05:48 -17.8 °C -18.6 °C 34476.3 hPa Calm     90 % 0 mm
05:53 -17.8 °C -18.6 °C 34476.3 hPa Calm     90 % 0 mm
05:58 -17.8 °C -18.6 °C 34476.3 hPa Calm     90 % 0 mm
06:03 -17.7 °C -18.5 °C 34476.3 hPa Calm   2.9 km/h 90 % 0 mm
06:08 -17.7 °C -18.5 °C 34476.3 hPa SSE 2.1 km/h 6.4 km/h 90 % 0 mm
06:13 -17.7 °C -18.5 °C 34476.3 hPa SSE 2.3 km/h 6.4 km/h 90 % 0 mm
06:18 -17.7 °C -18.5 °C 34476.3 hPa SSE 0.5 km/h 5.1 km/h 90 % 0 mm
06:23 -17.7 °C -18.5 °C 34476.3 hPa Calm   8 km/h 90 % 0 mm
06:28 -17.7 °C -18.5 °C 34476.3 hPa SSE 2.3 km/h 9.3 km/h 90 % 0 mm
06:33 -17.7 °C -18.5 °C 34476.3 hPa SSE 4.7 km/h 9.3 km/h 90 % 0 mm
06:38 -17.7 °C -18.5 °C 34476.3 hPa SSE 3.7 km/h 8.9 km/h 90 % 0 mm
06:44 -17.7 °C -18.5 °C 34476.3 hPa SSE 2.3 km/h 8 km/h 90 % 0 mm
06:49 -17.7 °C -18.5 °C 34476.3 hPa South 3.9 km/h 12.2 km/h 90 % 0 mm
06:54 -17.8 °C -18.6 °C 34476.3 hPa South 4.7 km/h 12.2 km/h 90 % 0 mm
06:59 -17.8 °C -18.6 °C 34476.3 hPa SSE 3.1 km/h 8.9 km/h 90 % 0 mm
07:04 -17.8 °C -18.6 °C 34476.3 hPa SSE 3.7 km/h 7.6 km/h 90 % 0 mm
07:09 -17.8 °C -18.6 °C 34476.3 hPa SSE 4.2 km/h 10.3 km/h 90 % 0 mm
07:14 -17.8 °C -18.6 °C 34476.3 hPa South 2.6 km/h 10.3 km/h 90 % 0 mm
07:19 -17.8 °C -18.6 °C 34476.3 hPa SSW 2.9 km/h 6.9 km/h 90 % 0 mm
07:24 -17.8 °C -18.6 °C 34476.3 hPa SSW 2.6 km/h 5.6 km/h 90 % 0 mm
07:29 -17.8 °C -18.7 °C 34476.3 hPa SE 1.6 km/h 6.4 km/h 90 % 0 mm
07:34 -17.8 °C -18.7 °C 34476.3 hPa SSE 2.6 km/h 6.4 km/h 90 % 0 mm
07:39 -17.8 °C -18.7 °C 34476.3 hPa South 3.4 km/h 9.3 km/h 90 % 0 mm
07:44 -17.8 °C -18.7 °C 34496.6 hPa South 3.7 km/h 9.3 km/h 90 % 0 mm
07:49 -17.8 °C -18.7 °C 34496.6 hPa South 4.7 km/h 10.3 km/h 90 % 0 mm
07:54 -17.8 °C -18.7 °C 34496.6 hPa SSE 4.7 km/h 10.3 km/h 90 % 0 mm
07:59 -17.8 °C -18.7 °C 34476.3 hPa SE 3.4 km/h 7.6 km/h 90 % 0 mm
08:04 -17.8 °C -18.7 °C 34476.3 hPa SE 4.2 km/h 8 km/h 90 % 0 mm
08:09 -17.8 °C -18.7 °C 34476.3 hPa SE 4.3 km/h 8.9 km/h 90 % 0 mm
08:14 -17.8 °C -18.7 °C 34496.6 hPa SSE 4.2 km/h 8.9 km/h 90 % 0 mm
08:19 -17.8 °C -18.7 °C 34496.6 hPa SSE 2.9 km/h 8 km/h 90 % 0 mm
08:24 -17.8 °C -18.7 °C 34496.6 hPa SE 3.7 km/h 9.3 km/h 90 % 0 mm
08:29 -17.8 °C -18.7 °C 34496.6 hPa ESE 6.4 km/h 9.8 km/h 90 % 0 mm
08:34 -17.8 °C -18.7 °C 34496.6 hPa SE 5.1 km/h 9.8 km/h 90 % 0 mm
08:39 -17.8 °C -18.7 °C 34496.6 hPa SSE 3.9 km/h 9.8 km/h 90 % 0 mm
08:44 -17.8 °C -18.6 °C 34496.6 hPa SE 4.3 km/h 9.8 km/h 90 % 0 mm
08:49 -17.8 °C -18.6 °C 34496.6 hPa SE 6 km/h 11.1 km/h 90 % 0 mm
08:54 -17.8 °C -18.6 °C 34496.6 hPa SE 6.8 km/h 11.1 km/h 90 % 0 mm
08:59 -17.8 °C -18.6 °C 34476.3 hPa SE 6.4 km/h 11.1 km/h 90 % 0 mm
09:04 -17.8 °C -18.6 °C 34476.3 hPa SE 5.1 km/h 10.3 km/h 90 % 0 mm
09:09 -17.7 °C -18.5 °C 34476.3 hPa SSE 2.1 km/h 8 km/h 90 % 0 mm
09:14 -17.7 °C -18.5 °C 34476.3 hPa South 1.3 km/h 6.4 km/h 90 % 0 mm
09:19 -17.7 °C -18.5 °C 34476.3 hPa SSE 2.6 km/h 6.9 km/h 90 % 0 mm
09:24 -17.7 °C -18.5 °C 34476.3 hPa SE 1.6 km/h 6.9 km/h 90 % 0 mm
09:29 -17.7 °C -18.5 °C 34476.3 hPa SSE 0.5 km/h 5.6 km/h 90 % 0 mm
09:34 -17.7 °C -18.5 °C 34476.3 hPa SSE 0.8 km/h 5.6 km/h 90 % 0 mm
09:39 -17.7 °C -18.5 °C 34476.3 hPa SSE 3.4 km/h 9.8 km/h 90 % 0 mm
09:44 -17.7 °C -18.5 °C 34476.3 hPa South 5.1 km/h 9.8 km/h 90 % 0 mm
09:49 -17.7 °C -18.4 °C 34476.3 hPa SE 5.1 km/h 9.8 km/h 91 % 0 mm
09:54 -17.7 °C -18.4 °C 34476.3 hPa SE 6 km/h 9.8 km/h 91 % 0 mm
09:59 -17.6 °C -18.3 °C 34476.3 hPa SE 5.5 km/h 9.3 km/h 91 % 0 mm
10:04 -17.6 °C -18.3 °C 34476.3 hPa SE 2.6 km/h 7.6 km/h 91 % 0 mm
10:09 -17.6 °C -18.3 °C 34476.3 hPa SE 3.7 km/h 8 km/h 91 % 0 mm
10:14 -17.6 °C -18.3 °C 34476.3 hPa SE 5.5 km/h 8.9 km/h 91 % 0 mm
10:20 -17.5 °C -18.2 °C 34476.3 hPa SSE 6.3 km/h 10.3 km/h 91 % 0 mm
10:25 -17.5 °C -18.2 °C 34476.3 hPa South 7.6 km/h 10.3 km/h 91 % 0 mm
10:30 -17.5 °C -18.2 °C 34476.3 hPa South 6.3 km/h 10.3 km/h 91 % 0 mm
10:35 -17.4 °C -18.2 °C 34476.3 hPa SSE 3.9 km/h 9.3 km/h 91 % 0 mm
10:40 -17.4 °C -18.2 °C 34476.3 hPa SSW 4.2 km/h 9.3 km/h 91 % 0 mm
10:45 -17.4 °C -18.2 °C 34476.3 hPa South 5.1 km/h 9.3 km/h 91 % 0 mm
10:50 -17.4 °C -18.2 °C 34476.3 hPa SE 3.1 km/h 8.9 km/h 91 % 0 mm
10:55 -17.4 °C -18.2 °C 34476.3 hPa SE 2.3 km/h 9.3 km/h 91 % 0 mm
11:00 -17.4 °C -18.2 °C 34476.3 hPa SE 4.7 km/h 9.3 km/h 91 % 0 mm
11:05 -17.4 °C -18.1 °C 34476.3 hPa SE 3.9 km/h 8.9 km/h 91 % 0 mm
11:10 -17.4 °C -18.1 °C 34428.8 hPa SE 1 km/h 7.6 km/h 91 % 0 mm
11:15 -17.4 °C -18.1 °C 34428.8 hPa South 1 km/h 6.4 km/h 91 % 0 mm
11:20 -17.3 °C -18.1 °C 34428.8 hPa SW 3.4 km/h 11.1 km/h 91 % 0 mm
11:25 -17.4 °C -18.1 °C 34428.8 hPa SW 5.6 km/h 11.1 km/h 91 % 0 mm
11:30 -17.3 °C -18.1 °C 34428.8 hPa SSW 6.3 km/h 8.9 km/h 91 % 0 mm
11:35 -17.3 °C -18 °C 34428.8 hPa South 5.6 km/h 8 km/h 91 % 0 mm
11:40 -17.3 °C -18 °C 34428.8 hPa South 3.4 km/h 8 km/h 91 % 0 mm
11:45 -17.3 °C -18.1 °C 34428.8 hPa SSE 2.1 km/h 6.4 km/h 91 % 0 mm
11:50 -17.3 °C -18.1 °C 34428.8 hPa SW 2.6 km/h 12.2 km/h 91 % 0 mm
11:55 -17.4 °C -18.2 °C 34428.8 hPa WSW 5.5 km/h 12.2 km/h 90 % 0 mm
12:00 -17.4 °C -18.2 °C 34428.8 hPa WSW 7.6 km/h 10.3 km/h 90 % 0 mm
12:05 -17.4 °C -18.2 °C 34428.8 hPa WSW 5.1 km/h 9.3 km/h 90 % 0 mm
12:10 -17.4 °C -18.2 °C 34428.8 hPa WSW 5 km/h 9.3 km/h 90 % 0 mm
12:15 -17.4 °C -18.2 °C 34428.8 hPa SW 4.7 km/h 9.3 km/h 90 % 0 mm
12:20 -17.4 °C -18.2 °C 34428.8 hPa SW 3.4 km/h 6.4 km/h 90 % 0 mm
12:25 -17.4 °C -18.2 °C 34428.8 hPa SSW 1.6 km/h 7.6 km/h 90 % 0 mm
12:30 -17.3 °C -18.1 °C 34428.8 hPa South 2.3 km/h 8.9 km/h 90 % 0 mm
12:35 -17.3 °C -18.1 °C 34428.8 hPa South 3.1 km/h 8.9 km/h 90 % 0 mm
12:40 -17.3 °C -18.1 °C 34428.8 hPa SW 0.5 km/h 6.4 km/h 90 % 0 mm
12:45 -17.2 °C -18.1 °C 34428.8 hPa SSW 0.3 km/h 5.1 km/h 89 % 0 mm
12:50 -17.2 °C -18.1 °C 34428.8 hPa SSW 0.3 km/h 5.1 km/h 89 % 0 mm
12:55 -17.2 °C -18.1 °C 34428.8 hPa South 2.3 km/h 10.3 km/h 89 % 0 mm
13:00 -17.2 °C -18.1 °C 34428.8 hPa SSW 3.1 km/h 10.3 km/h 89 % 0 mm
13:05 -17.2 °C -18.1 °C 34428.8 hPa SSW 1.6 km/h 5.6 km/h 89 % 0 mm
13:10 -17.2 °C -18.1 °C 34428.8 hPa SSW 1.6 km/h 5.6 km/h 89 % 0 mm
13:15 -17.2 °C -18.1 °C 34428.8 hPa SW 1 km/h 5.6 km/h 89 % 0 mm
13:20 -17.2 °C -18.1 °C 34428.8 hPa SW 2.3 km/h 6.4 km/h 89 % 0 mm
13:25 -17.2 °C -18.1 °C 34428.8 hPa SW 4.2 km/h 6.9 km/h 89 % 0 mm
13:30 -17.2 °C -18.1 °C 34428.8 hPa WSW 5.1 km/h 8.9 km/h 89 % 0 mm
13:35 -17.2 °C -18.1 °C 34428.8 hPa WSW 6 km/h 8.9 km/h 89 % 0 mm
13:40 -17.2 °C -18.1 °C 34405.1 hPa WSW 5.5 km/h 8.9 km/h 89 % 0 mm
13:45 -17.2 °C -18.1 °C 34405.1 hPa West 4.7 km/h 8 km/h 89 % 0 mm
13:50 -17.2 °C -18.1 °C 34405.1 hPa West 4.3 km/h 8 km/h 89 % 0 mm
13:55 -17.2 °C -18.2 °C 34405.1 hPa WNW 2.3 km/h 6.9 km/h 88 % 0 mm
14:00 -17.2 °C -18.2 °C 34405.1 hPa Calm   4.2 km/h 88 % 0 mm
14:05 -17.2 °C -18.2 °C 34405.1 hPa NNW 0.5 km/h 6.9 km/h 88 % 0 mm
14:10 -17.2 °C -18.2 °C 34405.1 hPa NNW 2.3 km/h 6.9 km/h 88 % 0 mm
14:15 -17.2 °C -18.2 °C 34405.1 hPa NE 4.2 km/h 8 km/h 88 % 0 mm
14:20 -17.2 °C -18.2 °C 34405.1 hPa ESE 5.1 km/h 8 km/h 88 % 0 mm
14:25 -17.2 °C -18.2 °C 34405.1 hPa East 3.4 km/h 7.6 km/h 88 % 0 mm
14:30 -17.2 °C -18.2 °C 34405.1 hPa East 1.8 km/h 6.4 km/h 88 % 0 mm
14:35 -17.2 °C -18.2 °C 34405.1 hPa East 1 km/h 6.4 km/h 88 % 0 mm
14:40 -17.2 °C -18.2 °C 34371.3 hPa ENE 1.6 km/h 8 km/h 88 % 0 mm
14:45 -17.2 °C -18.2 °C 34371.3 hPa ENE 4.2 km/h 8 km/h 88 % 0 mm
14:50 -17.2 °C -18.3 °C 34371.3 hPa East 5.1 km/h 12.2 km/h 87 % 0 mm
14:55 -17.2 °C -18.3 °C 34371.3 hPa SE 6.8 km/h 15.6 km/h 87 % 0 mm
15:00 -17.2 °C -18.3 °C 34371.3 hPa SE 8.5 km/h 15.6 km/h 87 % 0 mm
15:05 -17.2 °C -18.3 °C 34371.3 hPa SE 8.5 km/h 15 km/h 87 % 0 mm
15:10 -17.2 °C -18.3 °C 34371.3 hPa SSE 6.9 km/h 10.3 km/h 87 % 0 mm
15:15 -17.2 °C -18.3 °C 34371.3 hPa SSE 4.3 km/h 10.3 km/h 87 % 0 mm
15:20 -17.2 °C -18.3 °C 34371.3 hPa SE 4.3 km/h 10.3 km/h 87 % 0 mm
15:25 -17.2 °C -18.3 °C 34371.3 hPa SE 6 km/h 10.3 km/h 87 % 0 mm
15:30 -17.3 °C -18.3 °C 34371.3 hPa SE 5 km/h 8 km/h 87 % 0 mm
15:35 -17.3 °C -18.3 °C 34371.3 hPa SSE 4.2 km/h 8 km/h 87 % 0 mm
15:40 -17.3 °C -18.3 °C 34371.3 hPa SSE 3.1 km/h 6.4 km/h 87 % 0 mm
15:45 -17.3 °C -18.3 °C 34371.3 hPa SSE 2.6 km/h 7.6 km/h 87 % 0 mm
15:50 -17.3 °C -18.4 °C 34371.3 hPa South 3.9 km/h 11.1 km/h 87 % 0 mm
15:55 -17.3 °C -18.5 °C 34371.3 hPa South 5.1 km/h 11.1 km/h 86 % 0 mm
16:00 -17.3 °C -18.5 °C 34371.3 hPa South 5.5 km/h 8 km/h 86 % 0 mm
16:05 -17.3 °C -18.5 °C 34371.3 hPa SSE 5.5 km/h 15.6 km/h 86 % 0 mm
16:10 -17.3 °C -18.5 °C 34371.3 hPa SE 7.6 km/h 15.6 km/h 86 % 0 mm
16:15 -17.4 °C -18.6 °C 34371.3 hPa SE 10.9 km/h 16.9 km/h 86 % 0 mm
16:20 -17.4 °C -18.6 °C 34371.3 hPa SE 9.8 km/h 16.9 km/h 86 % 0 mm
16:25 -17.4 °C -18.6 °C 34371.3 hPa SE 8.9 km/h 15.6 km/h 86 % 0 mm
16:30 -17.4 °C -18.6 °C 34371.3 hPa SE 10.1 km/h 15.6 km/h 86 % 0 mm
16:35 -17.4 °C -18.6 °C 34371.3 hPa ESE 10.3 km/h 16.9 km/h 86 % 0 mm
16:40 -17.5 °C -18.7 °C 34371.3 hPa SE 9.3 km/h 16.9 km/h 86 % 0 mm
16:45 -17.5 °C -18.7 °C 34371.3 hPa SE 8.2 km/h 14.5 km/h 86 % 0 mm
16:50 -17.6 °C -18.7 °C 34371.3 hPa SSE 6.9 km/h 11.1 km/h 86 % 0 mm
16:55 -17.6 °C -18.8 °C 34371.3 hPa SSE 4.7 km/h 11.1 km/h 85 % 0 mm
17:01 -17.6 °C -18.8 °C 34371.3 hPa SE 4.7 km/h 10.3 km/h 85 % 0 mm
17:06 -17.6 °C -18.8 °C 34371.3 hPa SE 5 km/h 10.3 km/h 85 % 0 mm
17:11 -17.6 °C -18.8 °C 34371.3 hPa SE 4.7 km/h 10.3 km/h 85 % 0 mm
17:16 -17.6 °C -18.8 °C 34371.3 hPa SSE 5.5 km/h 9.8 km/h 85 % 0 mm
17:21 -17.6 °C -18.8 °C 34371.3 hPa SSE 5.6 km/h 9.8 km/h 85 % 0 mm
17:26 -17.6 °C -18.8 °C 34371.3 hPa SSE 6.4 km/h 9.3 km/h 85 % 0 mm
17:31 -17.7 °C -18.9 °C 34371.3 hPa SE 7.2 km/h 11.6 km/h 85 % 0 mm
17:36 -17.7 °C -18.9 °C 34371.3 hPa SSE 6 km/h 11.6 km/h 85 % 0 mm
17:41 -17.7 °C -18.9 °C 34337.4 hPa SSE 5.1 km/h 10.3 km/h 85 % 0 mm
17:46 -17.7 °C -18.9 °C 34337.4 hPa SSE 6 km/h 10.3 km/h 85 % 0 mm
17:51 -17.7 °C -18.9 °C 34337.4 hPa SSE 5.1 km/h 10.3 km/h 85 % 0 mm
17:56 -17.7 °C -18.9 °C 34337.4 hPa ESE 4.2 km/h 6.9 km/h 85 % 0 mm
18:01 -17.7 °C -18.9 °C 34337.4 hPa ESE 4.2 km/h 8 km/h 85 % 0 mm
18:06 -17.7 °C -18.9 °C 34337.4 hPa ESE 4.3 km/h 8 km/h 85 % 0 mm
18:11 -17.7 °C -18.9 °C 34371.3 hPa ESE 3.9 km/h 6.4 km/h 85 % 0 mm
18:16 -17.7 °C -18.9 °C 34371.3 hPa SE 2.9 km/h 6.4 km/h 85 % 0 mm
18:21 -17.7 °C -18.9 °C 34371.3 hPa SSE 3.1 km/h 6.4 km/h 85 % 0 mm
18:26 -17.7 °C -18.9 °C 34371.3 hPa SSE 3.4 km/h 10.3 km/h 85 % 0 mm
18:31 -17.7 °C -18.9 °C 34371.3 hPa SSE 5 km/h 10.3 km/h 85 % 0 mm
18:36 -17.7 °C -18.9 °C 34371.3 hPa SE 5.6 km/h 10.3 km/h 85 % 0 mm
18:37 -17.7 °C -18.9 °C 34371.3 hPa SE 5.1 km/h 6.9 km/h 85 % 0 mm
18:42 -17.7 °C -18.9 °C 34371.3 hPa SSE 3.1 km/h 6.9 km/h 85 % 0 mm
18:47 -17.7 °C -18.9 °C 34371.3 hPa SSE 4.3 km/h 11.1 km/h 85 % 0 mm
18:52 -17.8 °C -19 °C 34371.3 hPa SE 7.7 km/h 12.2 km/h 85 % 0 mm
18:57 -17.8 °C -19 °C 34371.3 hPa SE 6.9 km/h 12.2 km/h 85 % 0 mm
19:02 -17.8 °C -19 °C 34371.3 hPa ESE 6.4 km/h 11.1 km/h 85 % 0 mm
19:07 -17.8 °C -19 °C 34371.3 hPa ESE 8.2 km/h 12.7 km/h 85 % 0 mm
19:12 -17.8 °C -19.1 °C 34371.3 hPa ESE 10.3 km/h 17.4 km/h 85 % 0 mm
19:17 -17.8 °C -19.1 °C 34371.3 hPa ESE 9.7 km/h 17.4 km/h 85 % 0 mm
19:22 -17.8 °C -19.1 °C 34371.3 hPa ESE 6.4 km/h 10.3 km/h 85 % 0 mm
19:27 -17.9 °C -19.1 °C 34371.3 hPa ESE 5.1 km/h 8 km/h 85 % 0 mm
19:32 -17.9 °C -19.1 °C 34371.3 hPa ESE 4.3 km/h 8 km/h 85 % 0 mm
19:37 -17.9 °C -19.2 °C 34371.3 hPa ESE 3.7 km/h 6.9 km/h 85 % 0 mm
19:42 -17.9 °C -19.2 °C 34371.3 hPa East 3.7 km/h 6.4 km/h 85 % 0 mm
19:47 -18 °C -19.2 °C 34371.3 hPa East 2.6 km/h 6.4 km/h 85 % 0 mm
19:52 -18 °C -19.2 °C 34371.3 hPa ESE 1.3 km/h 6.4 km/h 85 % 0 mm
19:57 -18.1 °C -19.3 °C 34371.3 hPa East 1.8 km/h 6.4 km/h 85 % 7.62 mm
20:02 -18.1 °C -19.3 °C 34371.3 hPa ENE 1.6 km/h 4.2 km/h 85 % 12.7 mm
20:07 -18.1 °C -19.3 °C 34371.3 hPa East 0.5 km/h 5.1 km/h 85 % 12.7 mm
20:12 -18.1 °C -19.3 °C 34371.3 hPa ESE 1.3 km/h 8 km/h 85 % 12.7 mm
20:17 -18.1 °C -19.3 °C 34371.3 hPa East 3.4 km/h 8 km/h 85 % 12.7 mm
20:22 -18.1 °C -19.2 °C 34371.3 hPa East 2.1 km/h 6.9 km/h 86 % 12.7 mm
20:27 -18.1 °C -19.2 °C 34371.3 hPa Calm   6.4 km/h 86 % 12.7 mm
20:32 -18.1 °C -19.2 °C 34371.3 hPa SE 1.6 km/h 6.4 km/h 86 % 12.7 mm
20:37 -18.1 °C -19.2 °C 34371.3 hPa SE 3.4 km/h 6.4 km/h 86 % 12.7 mm
20:42 -18.1 °C -19.2 °C 34371.3 hPa ESE 3.9 km/h 6.4 km/h 86 % 12.7 mm
20:47 -18.1 °C -19.2 °C 34371.3 hPa ESE 2.6 km/h 6.4 km/h 86 % 20.32 mm
20:52 -18.1 °C -19.2 °C 34371.3 hPa ESE 1 km/h 5.6 km/h 86 % 20.32 mm
20:57 -18.1 °C -19.2 °C 34371.3 hPa SE 1.3 km/h 7.6 km/h 86 % 20.32 mm
21:02 -18.1 °C -19.2 °C 34371.3 hPa SE 2.3 km/h 7.6 km/h 86 % 7.62 mm
21:08 -18.1 °C -19.2 °C 34371.3 hPa SE 2.1 km/h 6.4 km/h 86 % 7.62 mm
21:13 -18.1 °C -19.1 °C 34371.3 hPa SE 0.5 km/h 5.1 km/h 87 % 7.62 mm
21:18 -18.1 °C -19.1 °C 34371.3 hPa Calm     87 % 7.62 mm
21:23 -18.1 °C -19.1 °C 34371.3 hPa Calm     87 % 7.62 mm
21:28 -18.1 °C -19.1 °C 34337.4 hPa WSW 0.8 km/h 3.4 km/h 87 % 7.62 mm
21:33 -18.1 °C -19.1 °C 34337.4 hPa West 1.6 km/h 5.6 km/h 87 % 7.62 mm
21:38 -18.1 °C -19.1 °C 34337.4 hPa SW 2.1 km/h 5.6 km/h 87 % 7.62 mm
21:43 -18.1 °C -19.1 °C 34337.4 hPa SW 3.7 km/h 8.9 km/h 87 % 7.62 mm
21:48 -18.1 °C -19.1 °C 34337.4 hPa WSW 6.9 km/h 14.5 km/h 87 % 0 mm
21:53 -18.1 °C -19.1 °C 34337.4 hPa WSW 9.7 km/h 15 km/h 87 % 0 mm
21:58 -18.1 °C -19.1 °C 34337.4 hPa WSW 7.7 km/h 15 km/h 87 % 0 mm
22:03 -18.1 °C -19.1 °C 34337.4 hPa SW 3.4 km/h 9.8 km/h 87 % 0 mm
22:08 -18.1 °C -19.2 °C 34337.4 hPa NW 2.1 km/h 6.4 km/h 87 % 0 mm
22:13 -18.1 °C -19.1 °C 34337.4 hPa NW 2.1 km/h 6.4 km/h 87 % 0 mm
22:18 -18.1 °C -19 °C 34337.4 hPa SW 2.3 km/h 8.9 km/h 88 % 0 mm
22:23 -18.1 °C -19 °C 34337.4 hPa South 3.9 km/h 9.8 km/h 88 % 0 mm
22:28 -18.1 °C -19 °C 34337.4 hPa SSE 5.5 km/h 9.8 km/h 88 % 0 mm
22:33 -18.1 °C -19.1 °C 34337.4 hPa South 5.5 km/h 9.3 km/h 88 % 0 mm
22:38 -18.1 °C -19.1 °C 34337.4 hPa South 3.1 km/h 9.3 km/h 88 % 0 mm
22:43 -18.1 °C -19.1 °C 34337.4 hPa South 0.5 km/h 6.9 km/h 88 % 0 mm
22:48 -18.1 °C -19.1 °C 34337.4 hPa South 1.3 km/h 8 km/h 88 % 0 mm
22:54 -18.1 °C -19.1 °C 34337.4 hPa South 1.3 km/h 8 km/h 88 % 0 mm
22:59 -18.1 °C -19.1 °C 34337.4 hPa SSW 0.3 km/h 2.3 km/h 88 % 0 mm
23:04 -18.1 °C -19.1 °C 34337.4 hPa Calm     88 % 0 mm
23:09 -18.2 °C -19.1 °C 34337.4 hPa Calm     88 % 7.62 mm
23:14 -18.2 °C -19.1 °C 34337.4 hPa Calm     88 % 7.62 mm
23:19 -18.2 °C -19.1 °C 34337.4 hPa Calm     88 % 7.62 mm
23:24 -18.2 °C -19.1 °C 34337.4 hPa Calm   4.2 km/h 88 % 7.62 mm
23:29 -18.2 °C -19.1 °C 34303.6 hPa ESE 1 km/h 8.9 km/h 88 % 12.7 mm
23:34 -18.1 °C -19 °C 34303.6 hPa East 2.1 km/h 8.9 km/h 89 % 12.7 mm
23:39 -18.1 °C -19 °C 34303.6 hPa East 2.6 km/h 10.3 km/h 89 % 12.7 mm
23:44 -18.1 °C -19 °C 34303.6 hPa ESE 2.9 km/h 10.3 km/h 89 % 12.7 mm
23:49 -18.1 °C -19 °C 34303.6 hPa ESE 4.3 km/h 9.3 km/h 89 % 20.32 mm
23:54 -18.1 °C -19 °C 34303.6 hPa ESE 5 km/h 9.3 km/h 89 % 20.32 mm
23:59 -18.1 °C -19 °C 34303.6 hPa ESE 5 km/h 11.1 km/h 89 % 20.32 mm
Vremenska postaja Senovo
Podatki zbrani iz Weather Underground - 3 mb

Script developed by  Jim McMurry - jmcmurry@mwt.net Adapted for the template by  Wim van der Kuil - Leuven-Template.eu

Vremenski podatki so objavljeni na:

European Weather Network

WeatherCloud

Weather Underground

AWEKAS

HAMweather, WeatherForYou, PWS Weather

MapView

Geostik

Slovenia weather network

Oprema, ki se uporablja:

Vremenski program
Cumulus

Vremenski server
Asus

Cumulus

Asus